Flight Track Log - Related Links

Times and Time Zones

All times are in EDT time to prevent confusion due to time zone crossing. See the N762VM flight status page for this flight to view local times or setup timezone preferences in your user account.

Time Position Orientation Groundspeed Altitude Reporting Facility
EDT Latitude Longitude Course Direction KTS MPH feet Rate Location/Type
Mon 05:03:44 PM 30.3822 -95.3942 67° East 181 208 1,500  Level Houston Center
Mon 05:04:09 PM 30.3889 -95.3764 67° East 171 197 2,300 1,468 Climbing Houston Center
Mon 05:05:18 PM 30.3997 -95.3142 79° East 215 247 3,800 1,191 Climbing Houston Center
Mon 05:06:20 PM 30.3883 -95.2425 100° East 227 261 4,900 581 Climbing Houston Center
Mon 05:07:22 PM 30.3667 -95.1433 104° East 253 291 5,000 158 Climbing Houston Center
Mon 05:08:14 PM 30.3400 -95.0750 114° Southeast 270 311 5,200 381 Climbing Houston Center
Mon 05:08:25 PM 30.3306 -95.0700 155° Southeast 284 327 5,400 1,452 Climbing Houston Center
Mon 05:09:16 PM 30.2664 -95.0719 181° South 241 277 6,700 1,355 Climbing Houston Center
Mon 05:09:27 PM 30.2617 -95.0714 174° South 251 289 6,800 1,377 Climbing Houston Center
Mon 05:10:17 PM 30.2011 -95.0703 179° South 239 275 8,100 1,355 Climbing Houston Center
Mon 05:10:29 PM 30.1964 -95.0697 174° South 240 276 8,200 1,548 Climbing Houston Center
Mon 05:11:19 PM 30.1483 -95.0236 140° Southeast 221 254 9,700 1,548 Climbing Houston Center
Mon 05:11:31 PM 30.1481 -95.0225 106° East 228 262 9,800 973 Climbing Houston Center
Mon 05:12:33 PM 30.0967 -94.9803 145° Southeast 223 257 10,900 1,027 Climbing Houston Center
Mon 05:13:22 PM 30.0647 -94.9158 120° Southeast 240 276 11,700 774 Climbing Houston Center
Mon 05:13:35 PM 30.0619 -94.9017 103° East 246 283 11,700 896 Level Houston Center
Mon 05:14:29 PM 30.0564 -94.8300 95° East 245 282 12,700 1,065 Climbing Houston Center
Mon 05:14:37 PM 30.0556 -94.8192 95° East 240 276 12,800 98 Climbing Houston Center
Mon 05:15:30 PM 30.0464 -94.7467 98° East 269 310 12,800  Level Houston Center
Mon 05:15:39 PM 30.0464 -94.7403 90° East 257 296 12,800 169 Level Houston Center
Mon 05:16:41 PM 30.0361 -94.6500 97° East 279 321 13,000 97 Climbing Houston Center
Mon 05:17:43 PM 30.0250 -94.5567 98° East 290 334 13,000  Level Houston Center
Mon 05:18:46 PM 30.0125 -94.4486 98° East 293 337 13,000  Level Houston Center
Mon 05:19:48 PM 30.0025 -94.3536 97° East 298 343 13,000  Level Houston Center
Mon 05:20:50 PM 29.9975 -94.2592 93° East 297 342 13,000  Level Houston Center
Mon 05:21:52 PM 30.0153 -94.1669 77° East 295 339 13,000  Level Houston Center
Mon 05:22:54 PM 30.0247 -94.0744 83° East 292 336 13,000  Level Houston Center
Mon 05:23:56 PM 30.0378 -93.9614 82° East 295 339 13,000  Level Houston Center
Mon 05:24:58 PM 30.0469 -93.8683 83° East 295 339 13,000  Level Houston Center
Mon 05:26:01 PM 30.0564 -93.7758 83° East 291 335 13,000  Level Houston Center
Mon 05:27:02 PM 30.0561 -93.6806 90° East 298 343 13,000  Level Houston Center
Mon 05:28:04 PM 30.0681 -93.5886 81° East 292 336 13,000  Level Houston Center
Mon 05:29:07 PM 30.0806 -93.4778 83° East 294 338 13,000  Level Houston Center
Mon 05:30:09 PM 30.0894 -93.3844 84° East 295 339 13,000  Level Houston Center
Mon 05:31:11 PM 30.0989 -93.2906 83° East 297 342 13,000  Level Houston Center
Mon 05:32:13 PM 30.1058 -93.1956 85° East 298 343 13,000  Level Houston Center
Mon 05:33:15 PM 30.1139 -93.1019 84° East 296 341 13,000  Level Houston Center
Mon 05:34:17 PM 30.1239 -92.9881 84° East 298 343 13,000 -194 Level Houston Center
Mon 05:35:19 PM 30.1314 -92.8942 85° East 296 341 12,600 -629 Descending Houston Center
Mon 05:36:21 PM 30.1392 -92.7956 85° East 303 349 11,700 -774 Descending Houston Center
Mon 05:37:23 PM 30.1467 -92.7000 85° East 302 348 11,000 -339 Descending Houston Center
Mon 05:38:25 PM 30.1558 -92.6092 83° East 293 337 11,000  Level Houston Center
Mon 05:39:27 PM 30.1619 -92.5233 85° East 281 323 11,000 -339 Level Houston Center
Mon 05:40:29 PM 30.1689 -92.4194 86° East 274 315 10,300 -1,403 Descending Houston Center
Mon 05:41:31 PM 30.1728 -92.3294 87° East 277 319 8,100 -2,304 Descending Houston Center
Mon 05:42:34 PM 30.1675 -92.2417 94° East 277 319 5,500 -2,352 Descending Houston Center
Mon 05:43:36 PM 30.1606 -92.1581 95° East 271 312 3,200 -2,226 Descending Houston Center
Mon 05:45:00 PM 30.1866 -92.0506 77° East  Level FlightAware Approximate
Mon 05:52:00 PM 30.2000 -91.9833 77° East  Level FlightAware Approximate
Mon 05:53:00 PM 30.2050 -91.9877 77° East  Level Estimated
Mon 05:54:00 PM 30.2000 -91.9833 77° East  Level FlightAware Approximate
Mon 05:55:00 PM 30.2050 -91.9877 77° East  Level Estimated
Mon 05:56:00 PM 30.2000 -91.9833 77° East  Level FlightAware Approximate

Login

Don't have an account? Register now (free) for customized features, flight alerts, and more!